sensor_id;sensor_type;location;lat;lon;timestamp;temperature;humidity
51579;DHT22;47998;53.242;6.386;2023-03-15T00:02:07;1.60;99.90
51579;DHT22;47998;53.242;6.386;2023-03-15T00:04:33;1.40;99.90
51579;DHT22;47998;53.242;6.386;2023-03-15T00:06:59;1.20;99.90
51579;DHT22;47998;53.242;6.386;2023-03-15T00:09:26;1.00;99.90
51579;DHT22;47998;53.242;6.386;2023-03-15T00:11:52;0.80;99.90
51579;DHT22;47998;53.242;6.386;2023-03-15T00:14:21;0.70;99.90
51579;DHT22;47998;53.242;6.386;2023-03-15T00:16:47;0.70;99.90
51579;DHT22;47998;53.242;6.386;2023-03-15T00:19:13;0.80;99.90
51579;DHT22;47998;53.242;6.386;2023-03-15T00:21:39;0.90;99.90
51579;DHT22;47998;53.242;6.386;2023-03-15T00:24:11;1.00;99.90
51579;DHT22;47998;53.242;6.386;2023-03-15T00:26:37;1.00;99.90
51579;DHT22;47998;53.242;6.386;2023-03-15T00:29:04;1.00;99.90
51579;DHT22;47998;53.242;6.386;2023-03-15T00:31:30;1.00;99.90
51579;DHT22;47998;53.242;6.386;2023-03-15T00:33:56;1.00;99.90
51579;DHT22;47998;53.242;6.386;2023-03-15T00:36:23;1.10;99.90
51579;DHT22;47998;53.242;6.386;2023-03-15T00:38:50;1.10;99.90
51579;DHT22;47998;53.242;6.386;2023-03-15T00:41:17;1.10;99.90
51579;DHT22;47998;53.242;6.386;2023-03-15T00:43:44;1.00;99.90
51579;DHT22;47998;53.242;6.386;2023-03-15T00:46:11;0.90;99.90
51579;DHT22;47998;53.242;6.386;2023-03-15T00:48:37;0.80;99.90
51579;DHT22;47998;53.242;6.386;2023-03-15T00:51:10;0.80;99.90
51579;DHT22;47998;53.242;6.386;2023-03-15T00:53:38;0.80;99.90
51579;DHT22;47998;53.242;6.386;2023-03-15T00:56:06;0.80;99.90
51579;DHT22;47998;53.242;6.386;2023-03-15T00:58:32;1.00;99.90
51579;DHT22;47998;53.242;6.386;2023-03-15T01:00:58;1.10;99.90
51579;DHT22;47998;53.242;6.386;2023-03-15T01:03:26;1.20;99.90
51579;DHT22;47998;53.242;6.386;2023-03-15T01:05:52;1.30;99.90
51579;DHT22;47998;53.242;6.386;2023-03-15T01:08:18;1.20;99.90
51579;DHT22;47998;53.242;6.386;2023-03-15T01:10:44;1.10;99.90
51579;DHT22;47998;53.242;6.386;2023-03-15T01:13:09;1.20;99.90
51579;DHT22;47998;53.242;6.386;2023-03-15T01:15:35;0.80;99.90
51579;DHT22;47998;53.242;6.386;2023-03-15T01:18:01;0.80;99.90
51579;DHT22;47998;53.242;6.386;2023-03-15T01:20:27;0.70;99.90
51579;DHT22;47998;53.242;6.386;2023-03-15T01:22:52;0.60;99.90
51579;DHT22;47998;53.242;6.386;2023-03-15T01:25:18;0.50;99.90
51579;DHT22;47998;53.242;6.386;2023-03-15T01:27:44;0.60;99.90
51579;DHT22;47998;53.242;6.386;2023-03-15T01:30:10;0.40;99.90
51579;DHT22;47998;53.242;6.386;2023-03-15T01:32:36;0.30;99.90
51579;DHT22;47998;53.242;6.386;2023-03-15T01:35:02;0.30;99.90
51579;DHT22;47998;53.242;6.386;2023-03-15T01:37:28;0.30;99.90
51579;DHT22;47998;53.242;6.386;2023-03-15T01:39:54;0.20;99.90
51579;DHT22;47998;53.242;6.386;2023-03-15T01:42:20;0.20;99.90
51579;DHT22;47998;53.242;6.386;2023-03-15T01:44:50;0.20;99.90
51579;DHT22;47998;53.242;6.386;2023-03-15T01:47:16;0.20;99.90
51579;DHT22;47998;53.242;6.386;2023-03-15T01:49:44;0.10;99.90
51579;DHT22;47998;53.242;6.386;2023-03-15T01:52:14;0.00;99.90
51579;DHT22;47998;53.242;6.386;2023-03-15T01:55:10;-0.10;99.90
51579;DHT22;47998;53.242;6.386;2023-03-15T01:57:50;-0.20;99.90
51579;DHT22;47998;53.242;6.386;2023-03-15T02:00:21;-0.20;99.90
51579;DHT22;47998;53.242;6.386;2023-03-15T02:03:09;-0.20;99.90
51579;DHT22;47998;53.242;6.386;2023-03-15T02:05:55;0.00;99.90
51579;DHT22;47998;53.242;6.386;2023-03-15T02:08:25;0.50;99.90
51579;DHT22;47998;53.242;6.386;2023-03-15T02:10:54;0.20;99.90
51579;DHT22;47998;53.242;6.386;2023-03-15T02:13:23;0.40;99.90
51579;DHT22;47998;53.242;6.386;2023-03-15T02:15:51;0.50;99.90
51579;DHT22;47998;53.242;6.386;2023-03-15T02:18:18;0.70;99.90
51579;DHT22;47998;53.242;6.386;2023-03-15T02:23:25;0.80;99.90
51579;DHT22;47998;53.242;6.386;2023-03-15T02:26:23;1.00;99.90
51579;DHT22;47998;53.242;6.386;2023-03-15T02:28:51;1.00;99.90
51579;DHT22;47998;53.242;6.386;2023-03-15T02:31:18;1.00;99.90
51579;DHT22;47998;53.242;6.386;2023-03-15T02:33:50;1.00;99.90
51579;DHT22;47998;53.242;6.386;2023-03-15T02:36:25;1.00;99.90
51579;DHT22;47998;53.242;6.386;2023-03-15T02:38:52;1.00;99.90
51579;DHT22;47998;53.242;6.386;2023-03-15T02:41:28;0.90;99.90
51579;DHT22;47998;53.242;6.386;2023-03-15T02:44:03;0.90;99.90
51579;DHT22;47998;53.242;6.386;2023-03-15T02:46:30;0.80;99.90
51579;DHT22;47998;53.242;6.386;2023-03-15T02:48:57;0.60;99.90
51579;DHT22;47998;53.242;6.386;2023-03-15T02:51:27;0.50;99.90
51579;DHT22;47998;53.242;6.386;2023-03-15T02:53:53;0.40;99.90
51579;DHT22;47998;53.242;6.386;2023-03-15T02:56:18;0.30;99.90
51579;DHT22;47998;53.242;6.386;2023-03-15T02:58:44;0.30;99.90
51579;DHT22;47998;53.242;6.386;2023-03-15T03:01:11;0.20;99.90
51579;DHT22;47998;53.242;6.386;2023-03-15T03:03:39;0.20;99.90
51579;DHT22;47998;53.242;6.386;2023-03-15T03:06:05;0.10;99.90
51579;DHT22;47998;53.242;6.386;2023-03-15T03:08:31;0.10;99.90
51579;DHT22;47998;53.242;6.386;2023-03-15T03:10:56;0.10;99.90
51579;DHT22;47998;53.242;6.386;2023-03-15T03:13:22;0.20;99.90
51579;DHT22;47998;53.242;6.386;2023-03-15T03:15:49;0.20;99.90
51579;DHT22;47998;53.242;6.386;2023-03-15T03:18:24;0.30;99.90
51579;DHT22;47998;53.242;6.386;2023-03-15T03:20:50;0.30;99.90
51579;DHT22;47998;53.242;6.386;2023-03-15T03:23:16;0.20;99.90
51579;DHT22;47998;53.242;6.386;2023-03-15T03:25:41;0.20;99.90
51579;DHT22;47998;53.242;6.386;2023-03-15T03:28:10;0.30;99.90
51579;DHT22;47998;53.242;6.386;2023-03-15T03:30:35;0.20;99.90
51579;DHT22;47998;53.242;6.386;2023-03-15T03:33:01;0.20;99.90
51579;DHT22;47998;53.242;6.386;2023-03-15T03:35:27;0.10;99.90
51579;DHT22;47998;53.242;6.386;2023-03-15T03:37:53;0.00;99.90
51579;DHT22;47998;53.242;6.386;2023-03-15T03:40:19;-0.10;99.90
51579;DHT22;47998;53.242;6.386;2023-03-15T03:42:44;-0.20;99.90
51579;DHT22;47998;53.242;6.386;2023-03-15T03:45:10;-0.30;99.90
51579;DHT22;47998;53.242;6.386;2023-03-15T03:47:36;-0.40;99.90
51579;DHT22;47998;53.242;6.386;2023-03-15T03:50:02;-0.50;99.90
51579;DHT22;47998;53.242;6.386;2023-03-15T03:52:28;-0.50;99.90
51579;DHT22;47998;53.242;6.386;2023-03-15T03:54:53;-0.20;99.90
51579;DHT22;47998;53.242;6.386;2023-03-15T03:57:19;-0.70;99.90
51579;DHT22;47998;53.242;6.386;2023-03-15T03:59:45;-0.80;99.90
51579;DHT22;47998;53.242;6.386;2023-03-15T04:02:11;-0.90;99.90
51579;DHT22;47998;53.242;6.386;2023-03-15T04:04:37;-0.90;99.90
51579;DHT22;47998;53.242;6.386;2023-03-15T04:07:06;-0.90;99.90
51579;DHT22;47998;53.242;6.386;2023-03-15T04:09:31;-1.00;99.90
51579;DHT22;47998;53.242;6.386;2023-03-15T04:12:02;-1.20;99.90
51579;DHT22;47998;53.242;6.386;2023-03-15T04:14:28;-1.30;99.90
51579;DHT22;47998;53.242;6.386;2023-03-15T04:16:54;-1.50;99.90
51579;DHT22;47998;53.242;6.386;2023-03-15T04:19:19;-1.60;99.90
51579;DHT22;47998;53.242;6.386;2023-03-15T04:21:45;-1.80;99.90
51579;DHT22;47998;53.242;6.386;2023-03-15T04:24:12;-1.80;99.90
51579;DHT22;47998;53.242;6.386;2023-03-15T04:26:38;-1.80;99.90
51579;DHT22;47998;53.242;6.386;2023-03-15T04:29:04;-1.90;99.90
51579;DHT22;47998;53.242;6.386;2023-03-15T04:31:30;-1.90;99.90
51579;DHT22;47998;53.242;6.386;2023-03-15T04:34:03;-2.10;99.90
51579;DHT22;47998;53.242;6.386;2023-03-15T04:36:29;-2.10;99.90
51579;DHT22;47998;53.242;6.386;2023-03-15T04:38:55;-2.20;99.90
51579;DHT22;47998;53.242;6.386;2023-03-15T04:41:32;-2.30;99.90
51579;DHT22;47998;53.242;6.386;2023-03-15T04:44:02;-2.30;99.90
51579;DHT22;47998;53.242;6.386;2023-03-15T04:46:32;-2.40;99.90
51579;DHT22;47998;53.242;6.386;2023-03-15T04:48:59;-2.40;99.90
51579;DHT22;47998;53.242;6.386;2023-03-15T04:51:25;-2.40;99.90
51579;DHT22;47998;53.242;6.386;2023-03-15T04:53:51;-1.50;99.90
51579;DHT22;47998;53.242;6.386;2023-03-15T04:56:17;-1.90;99.90
51579;DHT22;47998;53.242;6.386;2023-03-15T04:58:42;-1.80;99.90
51579;DHT22;47998;53.242;6.386;2023-03-15T05:01:09;-1.90;99.90
51579;DHT22;47998;53.242;6.386;2023-03-15T05:03:35;-1.90;99.90
51579;DHT22;47998;53.242;6.386;2023-03-15T05:06:01;-1.70;99.90
51579;DHT22;47998;53.242;6.386;2023-03-15T05:08:36;-1.50;99.90
51579;DHT22;47998;53.242;6.386;2023-03-15T05:11:04;-0.70;99.90
51579;DHT22;47998;53.242;6.386;2023-03-15T05:13:30;-1.10;99.90
51579;DHT22;47998;53.242;6.386;2023-03-15T05:15:56;-0.90;99.90
51579;DHT22;47998;53.242;6.386;2023-03-15T05:18:22;-0.90;99.90
51579;DHT22;47998;53.242;6.386;2023-03-15T05:20:49;-0.90;99.90
51579;DHT22;47998;53.242;6.386;2023-03-15T05:23:15;-1.10;99.90
51579;DHT22;47998;53.242;6.386;2023-03-15T05:25:41;-1.20;99.90
51579;DHT22;47998;53.242;6.386;2023-03-15T05:28:07;-1.40;99.90
51579;DHT22;47998;53.242;6.386;2023-03-15T05:30:33;-1.00;99.90
51579;DHT22;47998;53.242;6.386;2023-03-15T05:32:59;-0.80;99.90
51579;DHT22;47998;53.242;6.386;2023-03-15T05:35:29;-0.70;99.90
51579;DHT22;47998;53.242;6.386;2023-03-15T05:37:55;-0.20;99.90
51579;DHT22;47998;53.242;6.386;2023-03-15T05:40:20;-0.60;99.90
51579;DHT22;47998;53.242;6.386;2023-03-15T05:42:46;-0.50;99.90
51579;DHT22;47998;53.242;6.386;2023-03-15T05:45:12;-0.50;99.90
51579;DHT22;47998;53.242;6.386;2023-03-15T05:47:38;-0.50;99.90
51579;DHT22;47998;53.242;6.386;2023-03-15T05:50:04;-0.50;99.90
51579;DHT22;47998;53.242;6.386;2023-03-15T05:52:30;-0.40;99.90
51579;DHT22;47998;53.242;6.386;2023-03-15T05:54:55;-0.30;99.90
51579;DHT22;47998;53.242;6.386;2023-03-15T05:57:22;-0.10;99.90
51579;DHT22;47998;53.242;6.386;2023-03-15T05:59:47;-0.20;99.90
51579;DHT22;47998;53.242;6.386;2023-03-15T06:02:13;-0.30;99.90
51579;DHT22;47998;53.242;6.386;2023-03-15T06:04:39;-0.30;99.90
51579;DHT22;47998;53.242;6.386;2023-03-15T06:07:05;-0.30;99.90
51579;DHT22;47998;53.242;6.386;2023-03-15T06:09:31;-0.40;99.90
51579;DHT22;47998;53.242;6.386;2023-03-15T06:11:57;-0.40;99.90
51579;DHT22;47998;53.242;6.386;2023-03-15T06:14:24;-0.50;99.90
51579;DHT22;47998;53.242;6.386;2023-03-15T06:16:50;-0.60;99.90
51579;DHT22;47998;53.242;6.386;2023-03-15T06:19:16;-0.60;99.90
51579;DHT22;47998;53.242;6.386;2023-03-15T06:21:42;-0.60;99.90
51579;DHT22;47998;53.242;6.386;2023-03-15T06:24:08;-0.50;99.90
51579;DHT22;47998;53.242;6.386;2023-03-15T06:26:34;-0.40;99.90
51579;DHT22;47998;53.242;6.386;2023-03-15T06:28:59;-0.40;99.90
51579;DHT22;47998;53.242;6.386;2023-03-15T06:31:25;-0.40;99.90
51579;DHT22;47998;53.242;6.386;2023-03-15T06:33:51;-0.40;99.90
51579;DHT22;47998;53.242;6.386;2023-03-15T06:36:17;-0.40;99.90
51579;DHT22;47998;53.242;6.386;2023-03-15T06:38:43;-0.30;99.90
51579;DHT22;47998;53.242;6.386;2023-03-15T06:41:09;-0.20;99.90
51579;DHT22;47998;53.242;6.386;2023-03-15T06:43:37;-0.20;99.90
51579;DHT22;47998;53.242;6.386;2023-03-15T06:46:03;-0.10;99.90
51579;DHT22;47998;53.242;6.386;2023-03-15T06:48:29;-0.10;99.90
51579;DHT22;47998;53.242;6.386;2023-03-15T06:50:55;0.00;99.90
51579;DHT22;47998;53.242;6.386;2023-03-15T06:53:21;0.10;99.90
51579;DHT22;47998;53.242;6.386;2023-03-15T06:55:47;0.20;99.90
51579;DHT22;47998;53.242;6.386;2023-03-15T06:58:15;0.30;99.90
51579;DHT22;47998;53.242;6.386;2023-03-15T07:00:41;0.40;99.90
51579;DHT22;47998;53.242;6.386;2023-03-15T07:03:07;0.50;99.90
51579;DHT22;47998;53.242;6.386;2023-03-15T07:05:33;0.60;99.90
51579;DHT22;47998;53.242;6.386;2023-03-15T07:07:59;0.70;99.90
51579;DHT22;47998;53.242;6.386;2023-03-15T07:10:25;0.80;99.90
51579;DHT22;47998;53.242;6.386;2023-03-15T07:12:50;0.90;99.90
51579;DHT22;47998;53.242;6.386;2023-03-15T07:15:16;0.90;99.90
51579;DHT22;47998;53.242;6.386;2023-03-15T07:17:42;1.00;99.90
51579;DHT22;47998;53.242;6.386;2023-03-15T07:20:08;1.10;99.90
51579;DHT22;47998;53.242;6.386;2023-03-15T07:22:34;1.20;99.90
51579;DHT22;47998;53.242;6.386;2023-03-15T07:25:00;1.20;99.90
51579;DHT22;47998;53.242;6.386;2023-03-15T07:27:26;1.20;99.90
51579;DHT22;47998;53.242;6.386;2023-03-15T07:29:52;1.60;99.90
51579;DHT22;47998;53.242;6.386;2023-03-15T07:32:19;1.30;99.90
51579;DHT22;47998;53.242;6.386;2023-03-15T07:34:45;1.60;99.90
51579;DHT22;47998;53.242;6.386;2023-03-15T07:37:11;1.50;99.90
51579;DHT22;47998;53.242;6.386;2023-03-15T07:39:37;1.80;99.90
51579;DHT22;47998;53.242;6.386;2023-03-15T07:42:02;1.80;99.90
51579;DHT22;47998;53.242;6.386;2023-03-15T07:44:31;1.90;99.90
51579;DHT22;47998;53.242;6.386;2023-03-15T07:46:57;2.00;99.90
51579;DHT22;47998;53.242;6.386;2023-03-15T07:49:23;2.20;99.90
51579;DHT22;47998;53.242;6.386;2023-03-15T07:51:49;2.30;99.90
51579;DHT22;47998;53.242;6.386;2023-03-15T07:54:15;2.40;99.90
51579;DHT22;47998;53.242;6.386;2023-03-15T07:56:41;2.50;99.90
51579;DHT22;47998;53.242;6.386;2023-03-15T07:59:07;2.60;99.90
51579;DHT22;47998;53.242;6.386;2023-03-15T08:01:34;2.70;99.90
51579;DHT22;47998;53.242;6.386;2023-03-15T08:04:00;2.90;99.90
51579;DHT22;47998;53.242;6.386;2023-03-15T08:06:25;2.90;99.90
51579;DHT22;47998;53.242;6.386;2023-03-15T08:08:51;3.10;99.90
51579;DHT22;47998;53.242;6.386;2023-03-15T08:11:17;3.10;99.90
51579;DHT22;47998;53.242;6.386;2023-03-15T08:13:43;3.20;99.90
51579;DHT22;47998;53.242;6.386;2023-03-15T08:16:08;3.30;99.90
51579;DHT22;47998;53.242;6.386;2023-03-15T08:18:34;3.40;99.90
51579;DHT22;47998;53.242;6.386;2023-03-15T08:21:00;3.40;99.90
51579;DHT22;47998;53.242;6.386;2023-03-15T08:23:26;3.50;99.90
51579;DHT22;47998;53.242;6.386;2023-03-15T08:25:52;3.60;99.90
51579;DHT22;47998;53.242;6.386;2023-03-15T08:28:20;3.70;99.90
51579;DHT22;47998;53.242;6.386;2023-03-15T08:33:13;3.80;99.90
51579;DHT22;47998;53.242;6.386;2023-03-15T08:35:39;4.00;99.90
51579;DHT22;47998;53.242;6.386;2023-03-15T08:38:06;4.10;99.90
51579;DHT22;47998;53.242;6.386;2023-03-15T08:40:31;4.20;99.90
51579;DHT22;47998;53.242;6.386;2023-03-15T08:42:58;4.40;99.90
51579;DHT22;47998;53.242;6.386;2023-03-15T08:45:25;4.40;99.90
51579;DHT22;47998;53.242;6.386;2023-03-15T08:47:58;4.50;99.90
51579;DHT22;47998;53.242;6.386;2023-03-15T08:50:25;4.60;99.90
51579;DHT22;47998;53.242;6.386;2023-03-15T08:52:51;4.60;99.90
51579;DHT22;47998;53.242;6.386;2023-03-15T08:55:25;4.70;99.90
51579;DHT22;47998;53.242;6.386;2023-03-15T08:57:50;4.70;99.90
51579;DHT22;47998;53.242;6.386;2023-03-15T09:00:16;4.80;99.90
51579;DHT22;47998;53.242;6.386;2023-03-15T09:02:50;4.90;99.90
51579;DHT22;47998;53.242;6.386;2023-03-15T09:05:20;5.00;99.90
51579;DHT22;47998;53.242;6.386;2023-03-15T09:07:46;5.10;99.90
51579;DHT22;47998;53.242;6.386;2023-03-15T09:10:14;5.10;99.90
51579;DHT22;47998;53.242;6.386;2023-03-15T09:12:45;5.20;99.90
51579;DHT22;47998;53.242;6.386;2023-03-15T09:15:12;5.20;99.90
51579;DHT22;47998;53.242;6.386;2023-03-15T09:17:38;5.30;99.90
51579;DHT22;47998;53.242;6.386;2023-03-15T09:20:08;5.40;99.90
51579;DHT22;47998;53.242;6.386;2023-03-15T09:22:40;5.60;99.90
51579;DHT22;47998;53.242;6.386;2023-03-15T09:25:06;5.60;99.90
51579;DHT22;47998;53.242;6.386;2023-03-15T09:27:35;6.20;99.90
51579;DHT22;47998;53.242;6.386;2023-03-15T09:30:01;6.70;99.90
51579;DHT22;47998;53.242;6.386;2023-03-15T09:32:27;6.70;99.90
51579;DHT22;47998;53.242;6.386;2023-03-15T09:34:53;7.00;99.90
51579;DHT22;47998;53.242;6.386;2023-03-15T09:37:18;7.10;99.90
51579;DHT22;47998;53.242;6.386;2023-03-15T09:39:46;7.30;99.90
51579;DHT22;47998;53.242;6.386;2023-03-15T09:42:36;7.40;99.90
51579;DHT22;47998;53.242;6.386;2023-03-15T09:45:14;7.30;99.90
51579;DHT22;47998;53.242;6.386;2023-03-15T09:48:05;7.30;99.90
51579;DHT22;47998;53.242;6.386;2023-03-15T09:50:44;7.10;99.90
51579;DHT22;47998;53.242;6.386;2023-03-15T09:53:19;7.10;99.90
51579;DHT22;47998;53.242;6.386;2023-03-15T09:55:47;7.10;99.90
51579;DHT22;47998;53.242;6.386;2023-03-15T09:58:17;7.20;99.90
51579;DHT22;47998;53.242;6.386;2023-03-15T10:00:50;7.30;99.90
51579;DHT22;47998;53.242;6.386;2023-03-15T10:03:26;7.40;99.90
51579;DHT22;47998;53.242;6.386;2023-03-15T10:05:58;7.50;99.90
51579;DHT22;47998;53.242;6.386;2023-03-15T10:08:25;7.50;99.90
51579;DHT22;47998;53.242;6.386;2023-03-15T10:11:13;7.50;99.90
51579;DHT22;47998;53.242;6.386;2023-03-15T10:14:07;7.60;99.90
51579;DHT22;47998;53.242;6.386;2023-03-15T10:16:47;7.50;99.90
51579;DHT22;47998;53.242;6.386;2023-03-15T10:25:02;7.60;99.90
51579;DHT22;47998;53.242;6.386;2023-03-15T10:30:22;8.00;99.90
51579;DHT22;47998;53.242;6.386;2023-03-15T10:32:57;8.00;99.90
51579;DHT22;47998;53.242;6.386;2023-03-15T10:35:24;8.20;99.90
51579;DHT22;47998;53.242;6.386;2023-03-15T10:37:50;8.30;99.90
51579;DHT22;47998;53.242;6.386;2023-03-15T10:43:24;7.80;99.90
51579;DHT22;47998;53.242;6.386;2023-03-15T10:46:11;7.60;99.90
51579;DHT22;47998;53.242;6.386;2023-03-15T10:48:39;7.70;99.90
51579;DHT22;47998;53.242;6.386;2023-03-15T10:51:30;8.00;99.90
51579;DHT22;47998;53.242;6.386;2023-03-15T10:54:18;8.20;99.90
51579;DHT22;47998;53.242;6.386;2023-03-15T10:56:45;8.30;99.90
51579;DHT22;47998;53.242;6.386;2023-03-15T10:59:21;8.60;99.90
51579;DHT22;47998;53.242;6.386;2023-03-15T11:01:51;9.10;99.90
51579;DHT22;47998;53.242;6.386;2023-03-15T11:04:28;8.80;99.90
51579;DHT22;47998;53.242;6.386;2023-03-15T11:09:22;8.30;99.90
51579;DHT22;47998;53.242;6.386;2023-03-15T11:11:59;8.50;99.90
51579;DHT22;47998;53.242;6.386;2023-03-15T11:14:46;8.50;99.90
51579;DHT22;47998;53.242;6.386;2023-03-15T11:17:21;8.40;99.90
51579;DHT22;47998;53.242;6.386;2023-03-15T11:19:56;8.20;99.90
51579;DHT22;47998;53.242;6.386;2023-03-15T11:22:24;8.30;99.90
51579;DHT22;47998;53.242;6.386;2023-03-15T11:24:51;8.60;99.90
51579;DHT22;47998;53.242;6.386;2023-03-15T11:27:21;8.60;99.90
51579;DHT22;47998;53.242;6.386;2023-03-15T11:29:53;8.70;99.90
51579;DHT22;47998;53.242;6.386;2023-03-15T11:32:23;8.60;99.90
51579;DHT22;47998;53.242;6.386;2023-03-15T11:35:13;8.50;99.90
51579;DHT22;47998;53.242;6.386;2023-03-15T11:37:46;8.50;99.90
51579;DHT22;47998;53.242;6.386;2023-03-15T11:40:23;8.60;99.90
51579;DHT22;47998;53.242;6.386;2023-03-15T11:42:53;8.70;99.90
51579;DHT22;47998;53.242;6.386;2023-03-15T11:45:30;8.60;99.90
51579;DHT22;47998;53.242;6.386;2023-03-15T11:48:26;8.70;99.90
51579;DHT22;47998;53.242;6.386;2023-03-15T11:50:54;8.70;99.90
51579;DHT22;47998;53.242;6.386;2023-03-15T11:53:22;9.00;99.90
51579;DHT22;47998;53.242;6.386;2023-03-15T11:55:50;9.10;99.90
51579;DHT22;47998;53.242;6.386;2023-03-15T11:58:31;9.40;99.90
51579;DHT22;47998;53.242;6.386;2023-03-15T12:01:04;9.50;99.90
51579;DHT22;47998;53.242;6.386;2023-03-15T12:03:40;9.30;99.90
51579;DHT22;47998;53.242;6.386;2023-03-15T12:06:10;9.00;99.90
51579;DHT22;47998;53.242;6.386;2023-03-15T12:14:21;8.90;99.90
51579;DHT22;47998;53.242;6.386;2023-03-15T12:16:49;9.20;99.90
51579;DHT22;47998;53.242;6.386;2023-03-15T12:19:18;9.30;99.90
51579;DHT22;47998;53.242;6.386;2023-03-15T12:21:52;9.10;99.90
51579;DHT22;47998;53.242;6.386;2023-03-15T12:24:27;9.20;99.90
51579;DHT22;47998;53.242;6.386;2023-03-15T12:27:03;9.00;99.90
51579;DHT22;47998;53.242;6.386;2023-03-15T12:29:31;9.20;99.90
51579;DHT22;47998;53.242;6.386;2023-03-15T12:37:05;9.20;99.90
51579;DHT22;47998;53.242;6.386;2023-03-15T12:39:39;9.30;99.90
51579;DHT22;47998;53.242;6.386;2023-03-15T12:42:10;9.40;99.90
51579;DHT22;47998;53.242;6.386;2023-03-15T12:44:40;9.50;99.90
51579;DHT22;47998;53.242;6.386;2023-03-15T12:47:08;9.50;99.90
51579;DHT22;47998;53.242;6.386;2023-03-15T12:49:42;9.40;99.90
51579;DHT22;47998;53.242;6.386;2023-03-15T12:54:50;9.60;99.90
51579;DHT22;47998;53.242;6.386;2023-03-15T12:57:25;9.40;99.90
51579;DHT22;47998;53.242;6.386;2023-03-15T13:02:44;9.40;99.90
51579;DHT22;47998;53.242;6.386;2023-03-15T13:16:04;8.30;99.90
51579;DHT22;47998;53.242;6.386;2023-03-15T13:19:01;8.10;99.90
51579;DHT22;47998;53.242;6.386;2023-03-15T13:32:47;8.70;99.90
51579;DHT22;47998;53.242;6.386;2023-03-15T13:35:13;8.60;99.90
51579;DHT22;47998;53.242;6.386;2023-03-15T13:37:39;8.70;99.90
51579;DHT22;47998;53.242;6.386;2023-03-15T13:40:12;8.60;99.90
51579;DHT22;47998;53.242;6.386;2023-03-15T13:42:40;8.80;99.90
51579;DHT22;47998;53.242;6.386;2023-03-15T13:45:15;8.70;99.90
51579;DHT22;47998;53.242;6.386;2023-03-15T13:47:43;8.80;99.90
51579;DHT22;47998;53.242;6.386;2023-03-15T13:50:19;8.90;99.90
51579;DHT22;47998;53.242;6.386;2023-03-15T13:52:46;9.00;99.90
51579;DHT22;47998;53.242;6.386;2023-03-15T13:55:20;9.00;99.90
51579;DHT22;47998;53.242;6.386;2023-03-15T13:57:52;8.80;99.90
51579;DHT22;47998;53.242;6.386;2023-03-15T14:00:19;8.70;99.90
51579;DHT22;47998;53.242;6.386;2023-03-15T14:02:55;8.60;99.90
51579;DHT22;47998;53.242;6.386;2023-03-15T14:05:30;8.60;99.90
51579;DHT22;47998;53.242;6.386;2023-03-15T14:08:02;8.50;99.90
51579;DHT22;47998;53.242;6.386;2023-03-15T14:10:33;8.60;99.90
51579;DHT22;47998;53.242;6.386;2023-03-15T14:13:45;8.50;99.90
51579;DHT22;47998;53.242;6.386;2023-03-15T14:16:16;8.10;99.90
51579;DHT22;47998;53.242;6.386;2023-03-15T14:18:54;8.20;99.90
51579;DHT22;47998;53.242;6.386;2023-03-15T14:21:29;8.10;99.90
51579;DHT22;47998;53.242;6.386;2023-03-15T14:23:56;8.10;99.90
51579;DHT22;47998;53.242;6.386;2023-03-15T14:26:28;8.20;99.90
51579;DHT22;47998;53.242;6.386;2023-03-15T14:29:06;8.10;99.90
51579;DHT22;47998;53.242;6.386;2023-03-15T14:31:39;8.30;99.90
51579;DHT22;47998;53.242;6.386;2023-03-15T14:34:24;8.20;99.90
51579;DHT22;47998;53.242;6.386;2023-03-15T14:36:54;8.30;99.90
51579;DHT22;47998;53.242;6.386;2023-03-15T14:39:30;8.60;99.90
51579;DHT22;47998;53.242;6.386;2023-03-15T14:41:56;8.80;99.90
51579;DHT22;47998;53.242;6.386;2023-03-15T14:44:21;8.80;99.90
51579;DHT22;47998;53.242;6.386;2023-03-15T14:46:48;8.60;99.90
51579;DHT22;47998;53.242;6.386;2023-03-15T14:49:21;8.70;99.90
51579;DHT22;47998;53.242;6.386;2023-03-15T14:52:10;8.40;99.90
51579;DHT22;47998;53.242;6.386;2023-03-15T14:54:37;8.40;99.90
51579;DHT22;47998;53.242;6.386;2023-03-15T14:57:04;8.10;99.90
51579;DHT22;47998;53.242;6.386;2023-03-15T14:59:30;7.80;99.90
51579;DHT22;47998;53.242;6.386;2023-03-15T15:01:57;7.80;99.90
51579;DHT22;47998;53.242;6.386;2023-03-15T15:04:31;7.80;99.90
51579;DHT22;47998;53.242;6.386;2023-03-15T15:06:58;7.90;99.90
51579;DHT22;47998;53.242;6.386;2023-03-15T15:09:27;7.90;99.90
51579;DHT22;47998;53.242;6.386;2023-03-15T15:11:54;8.10;99.90
51579;DHT22;47998;53.242;6.386;2023-03-15T15:14:20;8.30;99.90
51579;DHT22;47998;53.242;6.386;2023-03-15T15:16:48;8.30;99.90
51579;DHT22;47998;53.242;6.386;2023-03-15T15:19:14;8.40;99.90
51579;DHT22;47998;53.242;6.386;2023-03-15T15:21:41;8.00;99.90
51579;DHT22;47998;53.242;6.386;2023-03-15T15:24:16;7.80;99.90
51579;DHT22;47998;53.242;6.386;2023-03-15T15:26:43;7.50;99.90
51579;DHT22;47998;53.242;6.386;2023-03-15T15:29:12;7.30;99.90
51579;DHT22;47998;53.242;6.386;2023-03-15T15:31:38;7.20;99.90
51579;DHT22;47998;53.242;6.386;2023-03-15T15:34:03;7.30;99.90
51579;DHT22;47998;53.242;6.386;2023-03-15T15:36:32;7.40;99.90
51579;DHT22;47998;53.242;6.386;2023-03-15T15:38:59;7.40;99.90
51579;DHT22;47998;53.242;6.386;2023-03-15T15:41:34;7.50;99.90
51579;DHT22;47998;53.242;6.386;2023-03-15T15:44:00;7.30;99.90
51579;DHT22;47998;53.242;6.386;2023-03-15T15:46:47;7.20;99.90
51579;DHT22;47998;53.242;6.386;2023-03-15T15:49:13;7.40;99.90
51579;DHT22;47998;53.242;6.386;2023-03-15T15:51:41;7.60;99.90
51579;DHT22;47998;53.242;6.386;2023-03-15T15:54:15;7.90;99.90
51579;DHT22;47998;53.242;6.386;2023-03-15T15:56:51;8.10;99.90
51579;DHT22;47998;53.242;6.386;2023-03-15T15:59:17;8.10;99.90
51579;DHT22;47998;53.242;6.386;2023-03-15T16:01:44;7.80;99.90
51579;DHT22;47998;53.242;6.386;2023-03-15T16:04:10;7.80;99.90
51579;DHT22;47998;53.242;6.386;2023-03-15T16:06:36;7.80;99.90
51579;DHT22;47998;53.242;6.386;2023-03-15T16:09:04;7.80;99.90
51579;DHT22;47998;53.242;6.386;2023-03-15T16:11:30;7.80;99.90
51579;DHT22;47998;53.242;6.386;2023-03-15T16:13:56;7.70;99.90
51579;DHT22;47998;53.242;6.386;2023-03-15T16:16:22;7.50;99.90
51579;DHT22;47998;53.242;6.386;2023-03-15T16:18:48;7.50;99.90
51579;DHT22;47998;53.242;6.386;2023-03-15T16:24:09;7.30;99.90
51579;DHT22;47998;53.242;6.386;2023-03-15T16:26:39;7.20;99.90
51579;DHT22;47998;53.242;6.386;2023-03-15T16:29:15;7.20;99.90
51579;DHT22;47998;53.242;6.386;2023-03-15T16:31:42;7.30;99.90
51579;DHT22;47998;53.242;6.386;2023-03-15T16:34:10;7.40;99.90
51579;DHT22;47998;53.242;6.386;2023-03-15T16:36:36;7.40;99.90
51579;DHT22;47998;53.242;6.386;2023-03-15T16:39:04;7.40;99.90
51579;DHT22;47998;53.242;6.386;2023-03-15T16:41:30;7.30;99.90
51579;DHT22;47998;53.242;6.386;2023-03-15T16:43:55;7.20;99.90
51579;DHT22;47998;53.242;6.386;2023-03-15T16:46:21;6.90;99.90
51579;DHT22;47998;53.242;6.386;2023-03-15T16:48:47;6.70;99.90
51579;DHT22;47998;53.242;6.386;2023-03-15T16:51:15;6.60;99.90
51579;DHT22;47998;53.242;6.386;2023-03-15T16:53:41;6.50;99.90
51579;DHT22;47998;53.242;6.386;2023-03-15T16:56:12;6.30;99.90